Time;durP1;ratioP1;P1;durP2;ratioP2;P2;SDS_P1;SDS_P2;PMS_P1;PMS_P2;Temp;Humidity;BMP_temperature;BMP_pressure;BME280_temperature;BME280_humidity;BME280_pressure;Samples;Min_cycle;Max_cycle;Signal;HPM_P1;HPM_P2
2024/01/10 00:01:08;;;;;;;46.37;20.90;;;-4.80;99.90;;;;;;4993928;28;20437;-62
2024/01/10 00:03:34;;;;;;;48.70;19.40;;;-4.80;99.90;;;;;;4995565;28;20618;-61
2024/01/10 00:05:59;;;;;;;42.60;20.10;;;-4.80;99.90;;;;;;4991205;28;20199;-62
2024/01/10 00:08:25;;;;;;;47.23;19.30;;;-4.70;99.90;;;;;;4984420;28;20260;-62
2024/01/10 00:10:54;;;;;;;46.63;19.60;;;-4.70;99.90;;;;;;4982762;28;20193;-60
2024/01/10 00:13:21;;;;;;;46.47;19.60;;;-4.70;99.90;;;;;;4986466;28;20217;-61
2024/01/10 00:15:46;;;;;;;46.73;20.67;;;-4.70;99.90;;;;;;4981491;28;20464;-60
2024/01/10 00:18:12;;;;;;;42.83;20.40;;;-4.70;99.90;;;;;;4987760;28;20486;-62
2024/01/10 00:20:37;;;;;;;48.07;20.60;;;-4.70;99.90;;;;;;4986628;28;20749;-61
2024/01/10 00:23:03;;;;;;;49.87;20.60;;;-4.70;99.90;;;;;;4981587;28;20187;-61
2024/01/10 00:25:29;;;;;;;57.37;21.80;;;-4.70;99.90;;;;;;4989385;28;20564;-60
2024/01/10 00:27:54;;;;;;;45.67;19.20;;;-4.70;99.90;;;;;;4991346;28;20186;-63
2024/01/10 00:30:21;;;;;;;45.67;20.63;;;-4.70;99.90;;;;;;4988132;28;20191;-61
2024/01/10 00:32:46;;;;;;;49.47;21.33;;;-4.70;99.90;;;;;;4983616;28;20190;-61
2024/01/10 00:35:12;;;;;;;44.83;19.40;;;-4.70;99.90;;;;;;4990162;28;20507;-61
2024/01/10 00:37:37;;;;;;;51.23;21.57;;;-4.70;99.90;;;;;;4989789;28;20201;-62
2024/01/10 00:40:03;;;;;;;48.30;19.17;;;-4.70;99.90;;;;;;4990313;28;20701;-60
2024/01/10 00:42:29;;;;;;;45.63;18.80;;;-4.70;99.90;;;;;;4987943;28;20186;-61
2024/01/10 00:44:55;;;;;;;52.73;21.37;;;-4.70;99.90;;;;;;4985166;28;20952;-63
2024/01/10 00:47:20;;;;;;;49.37;19.83;;;-4.70;99.90;;;;;;4985465;28;20694;-61
2024/01/10 00:49:46;;;;;;;46.77;20.67;;;-4.70;99.90;;;;;;4988325;28;20187;-60
2024/01/10 00:52:11;;;;;;;45.90;18.93;;;-4.60;99.90;;;;;;4991779;28;20203;-61
2024/01/10 00:54:37;;;;;;;47.33;18.90;;;-4.70;99.90;;;;;;4985823;28;20193;-63
2024/01/10 00:57:03;;;;;;;50.03;20.87;;;-4.60;99.90;;;;;;4985678;28;20217;-60
2024/01/10 00:59:28;;;;;;;54.03;20.50;;;-4.60;99.90;;;;;;4990343;28;20215;-61
2024/01/10 01:01:54;;;;;;;42.50;19.17;;;-4.60;99.90;;;;;;4987997;28;20193;-62
2024/01/10 01:04:20;;;;;;;47.60;19.27;;;-4.70;99.90;;;;;;4984352;28;20187;-61
2024/01/10 01:06:46;;;;;;;42.83;18.87;;;-4.60;99.90;;;;;;4984453;28;20206;-61
2024/01/10 01:09:15;;;;;;;44.13;17.97;;;-4.60;99.90;;;;;;4989678;28;20944;-62
2024/01/10 01:11:41;;;;;;;49.60;19.20;;;-4.60;99.90;;;;;;4987467;28;20209;-62
2024/01/10 01:14:07;;;;;;;44.07;18.07;;;-4.60;99.90;;;;;;4982012;28;20926;-61
2024/01/10 01:16:33;;;;;;;38.17;18.30;;;-4.70;99.90;;;;;;4985056;28;20492;-59
2024/01/10 01:18:58;;;;;;;44.70;18.77;;;-4.70;99.90;;;;;;4989883;28;20568;-64
2024/01/10 01:21:24;;;;;;;43.00;18.33;;;-4.70;99.90;;;;;;4990840;28;20271;-63
2024/01/10 01:23:50;;;;;;;47.97;18.87;;;-4.70;99.90;;;;;;4983498;28;20192;-59
2024/01/10 01:26:15;;;;;;;41.30;17.53;;;-4.70;99.90;;;;;;4989931;28;20194;-61
2024/01/10 01:28:41;;;;;;;47.07;19.13;;;-4.70;99.90;;;;;;4988392;28;20564;-62
2024/01/10 01:31:06;;;;;;;48.10;19.63;;;-4.70;99.90;;;;;;4989317;28;20228;-61
2024/01/10 01:33:32;;;;;;;45.90;20.17;;;-4.70;99.90;;;;;;4988050;28;20708;-62
2024/01/10 01:35:58;;;;;;;56.73;20.40;;;-4.70;99.90;;;;;;4988135;28;20213;-62
2024/01/10 01:38:24;;;;;;;44.27;18.17;;;-4.70;99.90;;;;;;4985825;28;20186;-63
2024/01/10 01:40:49;;;;;;;47.33;18.60;;;-4.70;99.90;;;;;;4987642;28;20465;-62
2024/01/10 01:43:20;;;;;;;49.43;20.37;;;-4.70;99.90;;;;;;4988256;28;20182;-61
2024/01/10 01:45:46;;;;;;;46.87;18.93;;;-4.70;99.90;;;;;;4983967;28;20692;-60
2024/01/10 01:48:11;;;;;;;47.50;20.57;;;-4.70;99.90;;;;;;4989684;28;20431;-61
2024/01/10 01:50:37;;;;;;;47.73;19.80;;;-4.70;99.90;;;;;;4985723;28;20182;-62
2024/01/10 01:53:03;;;;;;;50.00;19.40;;;-4.70;99.90;;;;;;4988204;28;20210;-62
2024/01/10 01:55:29;;;;;;;42.40;18.40;;;-4.70;99.90;;;;;;4988055;28;20656;-63
2024/01/10 01:57:55;;;;;;;45.77;19.50;;;-4.70;99.90;;;;;;4984103;28;20494;-62
2024/01/10 02:00:21;;;;;;;57.47;21.10;;;-4.70;99.90;;;;;;4984219;28;20493;-63
2024/01/10 02:02:48;;;;;;;41.67;18.17;;;-4.70;99.90;;;;;;4986327;28;20824;-60
2024/01/10 02:05:15;;;;;;;43.30;19.00;;;-4.70;99.90;;;;;;4988961;28;20717;-59
2024/01/10 02:07:41;;;;;;;41.07;18.57;;;-4.70;99.90;;;;;;4984903;28;20416;-62
2024/01/10 02:10:07;;;;;;;48.30;18.93;;;-4.70;99.90;;;;;;4987543;28;20488;-63
2024/01/10 02:12:33;;;;;;;44.00;18.10;;;-4.70;99.90;;;;;;4980503;28;20672;-61
2024/01/10 02:14:59;;;;;;;47.37;18.30;;;-4.70;99.90;;;;;;4983601;28;20875;-62
2024/01/10 02:17:25;;;;;;;41.27;18.23;;;-4.60;99.90;;;;;;4988748;28;20430;-61
2024/01/10 02:20:08;;;;;;;46.47;18.57;;;-4.60;99.90;;;;;;4989072;28;20468;-62
2024/01/10 02:22:33;;;;;;;39.67;18.10;;;-4.60;99.90;;;;;;4982681;28;20183;-61
2024/01/10 02:24:59;;;;;;;44.20;17.53;;;-4.60;99.90;;;;;;4987961;28;20513;-61
2024/01/10 02:27:25;;;;;;;40.77;18.33;;;-4.60;99.90;;;;;;4989224;28;20208;-61
2024/01/10 02:29:52;;;;;;;40.33;18.70;;;-4.60;99.90;;;;;;4983703;28;20191;-61
2024/01/10 02:32:17;;;;;;;47.70;19.57;;;-4.60;99.90;;;;;;4986583;28;20438;-61
2024/01/10 02:34:43;;;;;;;40.13;18.57;;;-4.60;99.90;;;;;;4981479;28;20495;-61
2024/01/10 02:37:08;;;;;;;49.80;21.07;;;-4.60;99.90;;;;;;4983517;28;20207;-59
2024/01/10 02:39:34;;;;;;;40.80;18.20;;;-4.60;99.90;;;;;;4987436;28;20303;-61
2024/01/10 02:41:59;;;;;;;44.60;18.00;;;-4.60;99.90;;;;;;4985978;28;20182;-61
2024/01/10 02:44:25;;;;;;;39.67;17.80;;;-4.60;99.90;;;;;;4984512;28;20190;-62
2024/01/10 02:46:51;;;;;;;37.80;17.17;;;-4.60;99.90;;;;;;4985299;28;20759;-60
2024/01/10 02:49:18;;;;;;;44.10;18.93;;;-4.50;99.90;;;;;;4987016;28;20195;-61
2024/01/10 02:51:44;;;;;;;40.93;18.50;;;-4.60;99.90;;;;;;4985005;28;20184;-60
2024/01/10 02:54:09;;;;;;;39.03;17.80;;;-4.50;99.90;;;;;;4984437;28;21123;-60
2024/01/10 02:56:35;;;;;;;45.57;18.37;;;-4.50;99.90;;;;;;4975954;28;20740;-60
2024/01/10 02:59:00;;;;;;;39.00;17.97;;;-4.50;99.90;;;;;;4980867;28;20217;-60
2024/01/10 03:01:26;;;;;;;39.77;17.30;;;-4.50;99.90;;;;;;4984249;28;20184;-61
2024/01/10 03:03:51;;;;;;;43.40;19.00;;;-4.50;99.90;;;;;;4983543;28;20669;-61
2024/01/10 03:06:17;;;;;;;40.80;16.80;;;-4.50;99.90;;;;;;4983245;28;20199;-61
2024/01/10 03:08:42;;;;;;;52.70;18.53;;;-4.50;99.90;;;;;;4985082;28;20248;-61
2024/01/10 03:11:08;;;;;;;44.17;19.03;;;-4.50;99.90;;;;;;4981787;28;20673;-62
2024/01/10 03:13:34;;;;;;;45.47;18.97;;;-4.50;99.90;;;;;;4985952;28;20191;-57
2024/01/10 03:15:59;;;;;;;43.53;19.90;;;-4.60;99.90;;;;;;4983449;28;20211;-60
2024/01/10 03:18:25;;;;;;;39.43;17.10;;;-4.60;99.90;;;;;;4987047;28;20183;-62
2024/01/10 03:20:50;;;;;;;46.63;19.97;;;-4.60;99.90;;;;;;4987351;28;20729;-59
2024/01/10 03:23:16;;;;;;;42.77;18.80;;;-4.60;99.90;;;;;;4985755;28;20192;-58
2024/01/10 03:25:41;;;;;;;47.73;18.97;;;-4.60;99.90;;;;;;4984583;28;20601;-59
2024/01/10 03:28:07;;;;;;;41.67;18.33;;;-4.60;99.90;;;;;;4982159;28;20233;-64
2024/01/10 03:30:33;;;;;;;47.00;19.63;;;-4.50;99.90;;;;;;4989030;28;20708;-61
2024/01/10 03:32:58;;;;;;;44.50;18.87;;;-4.50;99.90;;;;;;4986769;28;20186;-61
2024/01/10 03:35:24;;;;;;;37.70;18.10;;;-4.50;99.90;;;;;;4983927;28;20199;-63
2024/01/10 03:37:49;;;;;;;44.00;17.93;;;-4.50;99.90;;;;;;4983199;28;20275;-60
2024/01/10 03:40:15;;;;;;;39.93;17.30;;;-4.50;99.90;;;;;;4986692;28;20761;-61
2024/01/10 03:42:40;;;;;;;45.00;20.63;;;-4.50;99.90;;;;;;4985738;28;20229;-62
2024/01/10 03:45:06;;;;;;;44.87;19.43;;;-4.50;99.90;;;;;;4984604;28;20260;-61
2024/01/10 03:47:32;;;;;;;42.30;18.70;;;-4.50;99.90;;;;;;4986126;28;20203;-60
2024/01/10 03:49:57;;;;;;;44.17;19.87;;;-4.50;99.90;;;;;;4986498;28;20677;-63
2024/01/10 03:52:23;;;;;;;42.70;17.53;;;-4.50;99.90;;;;;;4986980;28;20724;-61
2024/01/10 03:54:49;;;;;;;41.50;17.17;;;-4.50;99.90;;;;;;4985686;28;20228;-61
2024/01/10 03:57:14;;;;;;;40.10;17.27;;;-4.40;99.90;;;;;;4986470;28;20908;-62
2024/01/10 03:59:40;;;;;;;42.27;18.17;;;-4.40;99.90;;;;;;4985179;28;20215;-60
2024/01/10 04:02:05;;;;;;;41.33;17.87;;;-4.40;99.90;;;;;;4986924;28;20261;-59
2024/01/10 04:04:31;;;;;;;43.30;19.10;;;-4.40;99.90;;;;;;4981158;28;20194;-59
2024/01/10 04:06:56;;;;;;;46.10;19.90;;;-4.40;99.90;;;;;;4979942;28;20202;-61
2024/01/10 04:09:22;;;;;;;41.53;18.93;;;-4.40;99.90;;;;;;4983232;28;20715;-61
2024/01/10 04:11:47;;;;;;;44.30;18.67;;;-4.40;99.90;;;;;;4988181;28;20285;-59
2024/01/10 04:14:13;;;;;;;45.20;20.60;;;-4.40;99.90;;;;;;4987622;28;20194;-62
2024/01/10 04:16:39;;;;;;;40.90;19.07;;;-4.40;99.90;;;;;;4985201;28;20296;-61
2024/01/10 04:19:04;;;;;;;42.00;18.50;;;-4.40;99.90;;;;;;4984582;28;20205;-61
2024/01/10 04:21:30;;;;;;;43.57;18.97;;;-4.40;99.90;;;;;;4987172;28;20211;-61
2024/01/10 04:23:55;;;;;;;45.10;17.77;;;-4.40;99.90;;;;;;4985129;28;20586;-63
2024/01/10 04:26:21;;;;;;;51.10;20.23;;;-4.30;99.90;;;;;;4984358;28;20212;-62
2024/01/10 04:28:47;;;;;;;50.13;19.63;;;-4.30;99.90;;;;;;4982213;28;20174;-59
2024/01/10 04:31:12;;;;;;;45.50;19.57;;;-4.30;99.90;;;;;;4981238;28;20174;-62
2024/01/10 04:33:38;;;;;;;49.60;18.60;;;-4.40;99.90;;;;;;4987953;28;20238;-61
2024/01/10 04:36:04;;;;;;;50.67;20.13;;;-4.30;99.90;;;;;;4983869;28;20703;-61
2024/01/10 04:38:29;;;;;;;44.67;19.00;;;-4.40;99.90;;;;;;4985332;28;20170;-64
2024/01/10 04:40:55;;;;;;;48.23;20.73;;;-4.30;99.90;;;;;;4985645;28;20460;-60
2024/01/10 04:43:20;;;;;;;62.80;22.90;;;-4.30;99.90;;;;;;4986856;28;20175;-60
2024/01/10 04:45:46;;;;;;;44.50;19.53;;;-4.30;99.90;;;;;;4984762;28;20230;-61
2024/01/10 04:48:12;;;;;;;45.00;20.27;;;-4.30;99.90;;;;;;4977261;28;20175;-63
2024/01/10 04:50:37;;;;;;;49.03;19.40;;;-4.30;99.90;;;;;;4979339;28;20290;-61
2024/01/10 04:53:03;;;;;;;46.30;18.37;;;-4.30;99.90;;;;;;4978067;28;20190;-60
2024/01/10 04:55:28;;;;;;;49.07;20.10;;;-4.30;99.90;;;;;;4974952;28;20191;-59
2024/01/10 04:57:54;;;;;;;53.27;19.60;;;-4.20;99.90;;;;;;4982033;28;20189;-60
2024/01/10 05:00:20;;;;;;;51.43;20.97;;;-4.20;99.90;;;;;;4975749;28;20673;-62
2024/01/10 05:02:45;;;;;;;39.60;18.77;;;-4.20;99.90;;;;;;4975995;28;20708;-66
2024/01/10 05:05:11;;;;;;;52.40;22.30;;;-4.10;99.90;;;;;;4985446;28;20183;-59
2024/01/10 05:07:36;;;;;;;45.77;19.53;;;-4.10;99.90;;;;;;4982447;28;20303;-59
2024/01/10 05:10:02;;;;;;;48.67;20.10;;;-4.10;99.90;;;;;;4981337;28;20197;-59
2024/01/10 05:12:28;;;;;;;47.63;20.03;;;-4.10;99.90;;;;;;4984037;28;20261;-59
2024/01/10 05:14:53;;;;;;;49.27;20.97;;;-4.10;99.90;;;;;;4989614;28;20719;-59
2024/01/10 05:17:19;;;;;;;39.50;17.90;;;-4.10;99.90;;;;;;4976880;28;20216;-59
2024/01/10 05:19:45;;;;;;;37.43;18.40;;;-4.10;99.90;;;;;;4982848;28;20248;-60
2024/01/10 05:22:11;;;;;;;43.40;19.33;;;-4.10;99.90;;;;;;4988103;28;20184;-61
2024/01/10 05:24:37;;;;;;;47.40;17.70;;;-4.10;99.90;;;;;;4985922;28;20513;-61
2024/01/10 05:27:03;;;;;;;48.70;20.90;;;-4.10;99.90;;;;;;4982533;28;20195;-60
2024/01/10 05:29:28;;;;;;;47.20;19.70;;;-4.00;99.90;;;;;;4978888;28;20189;-58
2024/01/10 05:31:54;;;;;;;39.50;20.00;;;-4.00;99.90;;;;;;4984749;28;20504;-61
2024/01/10 05:34:19;;;;;;;42.47;18.73;;;-4.00;99.90;;;;;;4986050;28;20285;-60
2024/01/10 05:36:45;;;;;;;50.03;20.07;;;-4.00;99.90;;;;;;4980062;28;20586;-59
2024/01/10 05:39:10;;;;;;;48.33;19.23;;;-4.00;99.90;;;;;;4983473;28;20299;-62
2024/01/10 05:41:36;;;;;;;49.90;20.70;;;-4.00;99.90;;;;;;4986762;28;20213;-59
2024/01/10 05:44:04;;;;;;;49.50;20.90;;;-4.00;99.90;;;;;;4984869;28;20181;-60
2024/01/10 05:46:30;;;;;;;51.57;20.27;;;-4.00;99.90;;;;;;4985272;28;20254;-60
2024/01/10 05:48:56;;;;;;;52.27;21.67;;;-4.00;99.90;;;;;;4981981;28;20473;-61
2024/01/10 05:51:22;;;;;;;48.60;20.90;;;-4.00;99.90;;;;;;4982550;28;20541;-61
2024/01/10 05:53:47;;;;;;;54.83;20.43;;;-4.00;99.90;;;;;;4981069;28;20217;-62
2024/01/10 05:56:13;;;;;;;50.63;20.77;;;-4.00;99.90;;;;;;4988745;28;20298;-59
2024/01/10 05:58:39;;;;;;;51.00;20.60;;;-4.00;99.90;;;;;;4986000;28;20188;-60
2024/01/10 06:01:09;;;;;;;48.53;20.83;;;-3.90;99.90;;;;;;4985882;28;20203;-59
2024/01/10 06:03:35;;;;;;;46.90;21.57;;;-4.00;99.90;;;;;;4988255;28;20449;-58
2024/01/10 06:06:01;;;;;;;51.90;21.63;;;-4.00;99.90;;;;;;4982440;28;20472;-59
2024/01/10 06:08:28;;;;;;;49.87;20.50;;;-4.00;99.90;;;;;;4982268;28;20350;-61
2024/01/10 06:10:54;;;;;;;48.40;21.57;;;-4.00;99.90;;;;;;4990258;28;20567;-62
2024/01/10 06:13:19;;;;;;;47.90;20.70;;;-4.00;99.90;;;;;;4989356;28;20442;-62
2024/01/10 06:15:45;;;;;;;46.73;20.20;;;-4.00;99.90;;;;;;4989249;28;20255;-62
2024/01/10 06:18:10;;;;;;;53.13;20.47;;;-3.90;99.90;;;;;;4990261;28;20284;-61
2024/01/10 06:20:39;;;;;;;46.43;20.40;;;-3.90;99.90;;;;;;4989770;28;20206;-60
2024/01/10 06:23:04;;;;;;;53.83;20.57;;;-3.90;99.90;;;;;;4982551;28;20237;-60
2024/01/10 06:25:30;;;;;;;47.57;20.07;;;-3.90;99.90;;;;;;4983145;28;20434;-62
2024/01/10 06:27:56;;;;;;;40.70;19.10;;;-3.90;99.90;;;;;;4983024;28;20186;-61
2024/01/10 06:30:21;;;;;;;55.13;20.70;;;-3.90;99.90;;;;;;4985547;28;20177;-61
2024/01/10 06:32:47;;;;;;;48.30;19.73;;;-3.90;99.90;;;;;;4988830;28;20719;-62
2024/01/10 06:35:13;;;;;;;49.13;20.83;;;-3.90;99.90;;;;;;4982068;28;20175;-61
2024/01/10 06:37:39;;;;;;;53.87;20.67;;;-3.90;99.90;;;;;;4984929;28;20469;-63
2024/01/10 06:40:05;;;;;;;52.33;21.53;;;-3.90;99.90;;;;;;4989479;28;20724;-61
2024/01/10 06:42:31;;;;;;;49.87;22.13;;;-3.90;99.90;;;;;;4988957;28;20177;-61
2024/01/10 06:44:57;;;;;;;50.37;21.17;;;-3.80;99.90;;;;;;4978613;28;20520;-61
2024/01/10 06:47:22;;;;;;;47.47;21.30;;;-3.80;99.90;;;;;;4986659;28;20222;-62
2024/01/10 06:49:48;;;;;;;47.90;19.60;;;-3.80;99.90;;;;;;4987502;28;20183;-62
2024/01/10 06:52:13;;;;;;;52.50;20.17;;;-3.80;99.90;;;;;;4986282;28;20269;-61
2024/01/10 06:54:39;;;;;;;47.03;20.37;;;-3.80;99.90;;;;;;4988182;28;20195;-61
2024/01/10 06:57:05;;;;;;;50.57;20.03;;;-3.80;99.90;;;;;;4984394;28;20204;-61
2024/01/10 06:59:30;;;;;;;52.93;20.10;;;-3.80;99.90;;;;;;4982648;28;20659;-62
2024/01/10 07:01:56;;;;;;;53.70;21.10;;;-3.80;99.90;;;;;;4983094;28;20182;-61
2024/01/10 07:04:23;;;;;;;53.10;21.87;;;-3.80;99.90;;;;;;4986123;28;20189;-61
2024/01/10 07:06:49;;;;;;;53.57;20.83;;;-3.80;99.90;;;;;;4987400;28;20302;-61
2024/01/10 07:09:19;;;;;;;49.87;21.30;;;-3.80;99.90;;;;;;4986695;28;20907;-61
2024/01/10 07:11:47;;;;;;;48.73;21.53;;;-3.80;99.90;;;;;;4986749;28;20966;-61
2024/01/10 07:14:14;;;;;;;58.10;22.13;;;-3.80;99.90;;;;;;4988437;28;20456;-60
2024/01/10 07:16:42;;;;;;;55.93;22.00;;;-3.80;99.90;;;;;;4982284;28;20472;-62
2024/01/10 07:19:13;;;;;;;50.80;21.80;;;-3.80;99.90;;;;;;4984465;28;20439;-61
2024/01/10 07:21:42;;;;;;;55.17;21.80;;;-3.70;99.90;;;;;;4984296;28;20863;-62
2024/01/10 07:24:11;;;;;;;51.53;21.87;;;-3.70;99.90;;;;;;4988683;28;20441;-62
2024/01/10 07:26:37;;;;;;;55.23;21.00;;;-3.70;99.90;;;;;;4980447;28;20517;-59
2024/01/10 07:29:03;;;;;;;52.53;20.90;;;-3.70;99.90;;;;;;4988797;28;21173;-61
2024/01/10 07:31:29;;;;;;;46.37;21.40;;;-3.60;99.90;;;;;;4982497;28;20862;-60
2024/01/10 07:33:58;;;;;;;47.23;21.30;;;-3.60;99.90;;;;;;4983759;28;20426;-59
2024/01/10 07:36:26;;;;;;;49.97;21.93;;;-3.50;99.90;;;;;;4986472;28;20473;-60
2024/01/10 07:38:57;;;;;;;52.33;21.40;;;-3.50;99.90;;;;;;4963668;28;20525;-60
2024/01/10 07:41:23;;;;;;;53.93;22.87;;;-3.50;99.90;;;;;;4984279;28;20943;-60
2024/01/10 07:43:49;;;;;;;51.47;20.20;;;-3.50;99.90;;;;;;4984424;28;20440;-60
2024/01/10 07:46:14;;;;;;;50.30;19.80;;;-3.50;99.90;;;;;;4986275;28;20202;-59
2024/01/10 07:48:40;;;;;;;49.13;20.63;;;-3.50;99.90;;;;;;4984005;28;20433;-59
2024/01/10 07:51:06;;;;;;;45.53;20.00;;;-3.50;99.90;;;;;;4986052;28;20271;-61
2024/01/10 07:53:32;;;;;;;59.57;23.13;;;-3.40;99.90;;;;;;4984213;28;20218;-60
2024/01/10 07:55:58;;;;;;;64.50;25.27;;;-3.40;99.90;;;;;;4983369;28;21597;-61
2024/01/10 07:58:23;;;;;;;51.77;22.53;;;-3.50;99.90;;;;;;4982993;28;20704;-58
2024/01/10 08:00:49;;;;;;;52.87;22.00;;;-3.50;99.90;;;;;;4982525;28;20276;-61
2024/01/10 08:03:15;;;;;;;52.57;20.97;;;-3.50;99.90;;;;;;4986261;28;20195;-60
2024/01/10 08:05:40;;;;;;;48.00;20.10;;;-3.40;99.90;;;;;;4985599;28;20449;-60
2024/01/10 08:08:06;;;;;;;41.30;19.70;;;-3.40;99.90;;;;;;4984212;28;20568;-60
2024/01/10 08:10:32;;;;;;;48.20;20.80;;;-3.50;99.90;;;;;;4980272;28;20209;-60
2024/01/10 08:12:58;;;;;;;46.53;20.57;;;-3.50;99.90;;;;;;4982821;28;20197;-60
2024/01/10 08:15:24;;;;;;;44.07;19.77;;;-3.40;99.90;;;;;;4983256;28;20420;-60
2024/01/10 08:17:49;;;;;;;45.93;19.93;;;-3.40;99.90;;;;;;4984950;28;20198;-60
2024/01/10 08:20:19;;;;;;;53.23;22.13;;;-3.40;99.90;;;;;;4962006;28;20209;-60
2024/01/10 08:22:45;;;;;;;49.10;22.20;;;-3.40;99.90;;;;;;4978680;28;20297;-60
2024/01/10 08:25:12;;;;;;;51.43;20.60;;;-3.40;99.90;;;;;;4965057;28;20425;-60
2024/01/10 08:27:38;;;;;;;46.67;19.97;;;-3.30;99.90;;;;;;4982696;28;20446;-60
2024/01/10 08:30:05;;;;;;;64.63;23.60;;;-3.30;99.90;;;;;;4997058;28;20509;-60
2024/01/10 08:32:31;;;;;;;56.70;23.30;;;-3.30;99.90;;;;;;4983257;28;20458;-60
2024/01/10 08:34:57;;;;;;;76.53;27.97;;;-3.20;99.90;;;;;;4986235;28;20952;-60
2024/01/10 08:37:22;;;;;;;74.93;28.60;;;-3.20;99.90;;;;;;4980056;28;20492;-61
2024/01/10 08:39:50;;;;;;;66.53;26.23;;;-3.20;99.90;;;;;;4986470;28;20461;-60
2024/01/10 08:42:15;;;;;;;65.93;25.07;;;-3.10;99.90;;;;;;4984066;28;20179;-60
2024/01/10 08:44:41;;;;;;;60.73;23.03;;;-3.10;99.90;;;;;;4985059;28;20487;-60
2024/01/10 08:47:07;;;;;;;69.33;26.10;;;-3.10;99.90;;;;;;4983608;28;20214;-61
2024/01/10 08:49:33;;;;;;;64.60;23.90;;;-3.00;99.90;;;;;;4982162;28;20183;-60
2024/01/10 08:51:58;;;;;;;58.73;23.13;;;-3.00;99.90;;;;;;4988460;28;20948;-57
2024/01/10 08:54:25;;;;;;;56.20;22.43;;;-2.90;99.90;;;;;;4986584;28;20247;-60
2024/01/10 08:56:50;;;;;;;65.97;24.50;;;-2.90;99.90;;;;;;4989600;28;20641;-60
2024/01/10 08:59:16;;;;;;;64.33;25.20;;;-2.80;99.90;;;;;;4989931;28;20468;-61
2024/01/10 09:01:42;;;;;;;64.10;26.20;;;-2.80;99.90;;;;;;4984863;28;20215;-59
2024/01/10 09:04:08;;;;;;;75.90;29.27;;;-2.70;99.90;;;;;;4989315;28;20177;-60
2024/01/10 09:06:35;;;;;;;76.60;27.27;;;-2.70;99.90;;;;;;4990272;28;20440;-61
2024/01/10 09:09:01;;;;;;;83.80;27.40;;;-2.70;99.90;;;;;;4985528;28;20555;-60
2024/01/10 09:11:26;;;;;;;84.87;27.80;;;-2.70;99.90;;;;;;4982585;28;20439;-60
2024/01/10 09:13:52;;;;;;;78.50;26.00;;;-2.70;99.90;;;;;;4969825;28;20699;-61
2024/01/10 09:16:20;;;;;;;91.20;29.07;;;-2.70;99.90;;;;;;4974971;28;20257;-61
2024/01/10 09:18:46;;;;;;;84.03;30.10;;;-2.70;99.90;;;;;;4990415;28;20188;-61
2024/01/10 09:21:12;;;;;;;76.47;28.40;;;-2.60;99.90;;;;;;4981441;28;20477;-61
2024/01/10 09:23:37;;;;;;;70.43;28.70;;;-2.60;99.90;;;;;;4979560;28;20176;-58
2024/01/10 09:26:03;;;;;;;77.00;26.40;;;-2.50;99.90;;;;;;4991068;28;20206;-61
2024/01/10 09:28:29;;;;;;;86.53;29.00;;;-2.50;99.90;;;;;;4988781;28;20183;-61
2024/01/10 09:30:55;;;;;;;99.40;29.30;;;-2.50;99.90;;;;;;4981343;28;20190;-61
2024/01/10 09:33:22;;;;;;;77.90;28.53;;;-2.40;99.90;;;;;;4989632;28;20214;-61
2024/01/10 09:35:48;;;;;;;92.43;27.00;;;-2.40;99.90;;;;;;4987549;28;20219;-61
2024/01/10 09:38:13;;;;;;;82.73;25.70;;;-2.40;99.90;;;;;;4989565;28;20421;-61
2024/01/10 09:40:39;;;;;;;72.90;25.17;;;-2.40;99.90;;;;;;4988949;28;20202;-61
2024/01/10 09:43:07;;;;;;;68.67;26.77;;;-2.30;99.90;;;;;;4983171;28;20174;-61
2024/01/10 09:45:35;;;;;;;89.10;26.83;;;-2.20;99.90;;;;;;4979873;28;20857;-58
2024/01/10 09:48:02;;;;;;;74.97;25.50;;;-2.20;99.90;;;;;;4989263;28;20410;-61
2024/01/10 09:50:28;;;;;;;65.67;25.37;;;-2.10;99.90;;;;;;4986339;28;20438;-61
2024/01/10 09:53:04;;;;;;;69.20;26.40;;;-2.10;99.90;;;;;;4985603;28;20869;-61
2024/01/10 09:55:36;;;;;;;80.93;27.07;;;-2.10;99.90;;;;;;4988878;28;21330;-61
2024/01/10 09:58:08;;;;;;;74.13;26.33;;;-2.00;99.90;;;;;;4982345;28;20439;-61
2024/01/10 10:00:37;;;;;;;72.23;27.80;;;-2.00;99.90;;;;;;4979672;28;20455;-61
2024/01/10 10:03:06;;;;;;;72.80;27.03;;;-1.90;99.90;;;;;;4981372;28;20458;-61
2024/01/10 10:05:34;;;;;;;81.23;28.67;;;-1.80;99.90;;;;;;4969226;28;20435;-61
2024/01/10 10:07:59;;;;;;;73.60;27.80;;;-1.80;99.90;;;;;;4986461;28;20428;-61
2024/01/10 10:10:26;;;;;;;83.73;28.30;;;-1.70;99.90;;;;;;4971441;28;20414;-61
2024/01/10 10:12:53;;;;;;;67.77;25.70;;;-1.70;99.90;;;;;;4987842;28;20188;-61
2024/01/10 10:15:26;;;;;;;78.40;28.57;;;-1.60;99.90;;;;;;4984169;28;21182;-62
2024/01/10 10:17:53;;;;;;;68.57;27.60;;;-1.60;99.90;;;;;;4984451;28;20497;-62
2024/01/10 10:20:35;;;;;;;70.70;26.77;;;-1.60;99.90;;;;;;4988433;28;20509;-60
2024/01/10 10:23:06;;;;;;;66.80;25.27;;;-1.60;99.90;;;;;;4963629;28;20430;-60
2024/01/10 10:25:37;;;;;;;76.90;26.50;;;-1.50;99.90;;;;;;4979931;28;20434;-61
2024/01/10 10:28:04;;;;;;;71.77;28.70;;;-1.60;99.90;;;;;;4986685;28;20418;-61
2024/01/10 10:30:33;;;;;;;69.57;28.20;;;-1.60;99.90;;;;;;4977255;28;20442;-60
2024/01/10 10:32:59;;;;;;;79.63;27.80;;;-1.60;99.90;;;;;;4986980;28;20995;-60
2024/01/10 10:35:24;;;;;;;76.23;28.20;;;-1.60;99.90;;;;;;4987574;28;20453;-58
2024/01/10 10:37:52;;;;;;;69.53;28.00;;;-1.60;99.90;;;;;;4987020;28;20242;-60
2024/01/10 10:40:19;;;;;;;75.47;28.90;;;-1.50;99.90;;;;;;4982532;28;20207;-61
2024/01/10 10:42:49;;;;;;;77.07;27.70;;;-1.50;99.90;;;;;;4987654;28;20429;-62
2024/01/10 10:45:19;;;;;;;72.20;27.50;;;-1.40;99.90;;;;;;4985054;28;20991;-61
2024/01/10 10:47:48;;;;;;;77.30;30.93;;;-1.40;99.90;;;;;;4980474;28;20463;-61
2024/01/10 10:50:27;;;;;;;83.17;29.67;;;-1.40;99.90;;;;;;4983165;28;20979;-62
2024/01/10 10:52:56;;;;;;;86.97;28.13;;;-1.40;99.90;;;;;;4967724;28;20442;-61
2024/01/10 10:55:23;;;;;;;78.83;26.30;;;-1.30;99.90;;;;;;4986159;28;21075;-59
2024/01/10 10:57:49;;;;;;;79.40;29.10;;;-1.30;99.90;;;;;;4988319;28;20437;-62
2024/01/10 11:00:18;;;;;;;81.17;28.67;;;-1.30;99.90;;;;;;4984980;28;21048;-61
2024/01/10 11:02:45;;;;;;;85.40;27.87;;;-1.30;99.90;;;;;;4981182;28;20976;-61
2024/01/10 11:05:11;;;;;;;81.90;27.83;;;-1.30;99.90;;;;;;4978704;28;20438;-61
2024/01/10 11:07:38;;;;;;;74.10;27.50;;;-1.20;99.90;;;;;;4982316;28;20516;-60
2024/01/10 11:10:10;;;;;;;83.90;29.60;;;-1.20;99.90;;;;;;4976140;28;20514;-60
2024/01/10 11:12:44;;;;;;;83.33;28.00;;;-1.10;99.90;;;;;;4980941;28;20433;-61
2024/01/10 11:15:29;;;;;;;90.00;29.63;;;-1.00;99.90;;;;;;4978149;28;20528;-62
2024/01/10 11:18:22;;;;;;;100.33;28.40;;;-1.00;99.90;;;;;;4978054;28;20435;-61
2024/01/10 11:21:24;;;;;;;104.63;28.00;;;-0.90;99.90;;;;;;4984654;28;20472;-61
2024/01/10 11:23:54;;;;;;;75.73;26.10;;;-0.70;99.90;;;;;;4893511;28;20446;-62
2024/01/10 11:26:20;;;;;;;93.10;29.43;;;-0.70;99.90;;;;;;4987458;28;20450;-62
2024/01/10 11:28:46;;;;;;;84.60;27.03;;;-0.60;99.90;;;;;;4977357;28;20468;-61
2024/01/10 11:31:15;;;;;;;83.20;27.60;;;-0.50;99.90;;;;;;4987323;28;20482;-61
2024/01/10 11:33:43;;;;;;;77.50;24.10;;;-0.50;99.90;;;;;;4983868;28;20429;-60
2024/01/10 11:36:15;;;;;;;74.10;23.30;;;-0.40;99.90;;;;;;4986474;28;20556;-62
2024/01/10 11:38:56;;;;;;;62.87;22.83;;;-0.40;99.90;;;;;;4985331;28;20473;-62
2024/01/10 11:41:51;;;;;;;94.30;24.20;;;-0.40;99.90;;;;;;4986787;28;20462;-60
2024/01/10 11:44:22;;;;;;;59.13;20.93;;;-0.40;99.90;;;;;;4973431;28;20458;-61
2024/01/10 11:46:54;;;;;;;42.43;17.27;;;-0.40;99.90;;;;;;4980638;28;20435;-61
2024/01/10 11:49:21;;;;;;;34.43;14.27;;;-0.30;99.90;;;;;;4983377;28;20434;-60
2024/01/10 11:51:48;;;;;;;56.50;20.83;;;-0.30;99.90;;;;;;4985708;28;20482;-62
2024/01/10 11:54:36;;;;;;;39.63;16.00;;;-0.20;99.90;;;;;;4985515;28;20426;-62
2024/01/10 11:57:02;;;;;;;50.97;15.50;;;-0.20;99.90;;;;;;4983991;28;20926;-62
2024/01/10 11:59:30;;;;;;;36.67;15.10;;;-0.20;99.90;;;;;;4984968;28;20458;-62
2024/01/10 12:01:56;;;;;;;40.87;15.73;;;-0.20;99.90;;;;;;4985100;28;20204;-62
2024/01/10 12:04:21;;;;;;;42.90;16.73;;;-0.20;99.90;;;;;;4983779;28;20964;-62
2024/01/10 12:06:47;;;;;;;44.00;16.90;;;-0.20;99.90;;;;;;4985325;28;20249;-62
2024/01/10 12:09:14;;;;;;;48.50;17.20;;;-0.20;99.90;;;;;;4984233;28;20769;-62
2024/01/10 12:11:40;;;;;;;45.80;17.30;;;-0.10;99.90;;;;;;4985003;28;20731;-60
2024/01/10 12:14:06;;;;;;;52.17;16.93;;;-0.10;99.90;;;;;;4988238;28;20426;-62
2024/01/10 12:16:35;;;;;;;43.50;16.23;;;-0.20;99.90;;;;;;4972900;28;20471;-63
2024/01/10 12:19:00;;;;;;;39.17;16.17;;;-0.20;99.90;;;;;;4986395;28;20183;-63
2024/01/10 12:21:26;;;;;;;36.90;15.40;;;-0.20;99.90;;;;;;4986047;28;20513;-62
2024/01/10 12:23:52;;;;;;;32.57;14.57;;;-0.10;99.90;;;;;;4982750;28;20224;-61